»·PEaware :: N54058 KSPG-KFXE

N54058 :: KSPG-KFXE

FLIGHT INFORMATION

Flight Status: Arrived
Operator: Privately registered:
United States
More flights under this callsign
Pilot: Ulli W. (2180)
Aircraft: DIAMOND DA-42 TWINSTAR
(DA42)
More flights by this aircraft type
Origin: KSPG Whitted
United States
Destination: KFXE Ft Lauderdale Executive
United States
More flights between these airports :: More routes between these airports
Route: KLAL
File this flight plan on PilotEdge
Remarks:
Altitude:
(Current/Filed)
3,500ft
Speed:
(Current/Filed)
230kts
Departed: 11-Aug-15 11:23 AM
Arrived: 11-Aug-15 12:09 PM
Distance/Time
Traveled:
161nm/0:46
Distance/Time
To Go:
Arrived

Flight Plot

Page will automatically refresh every two minutes.


Map Options




Map Legend


Flown Route
Filed Route
Departure Airport
Arrival Airport
Navaid (VOR, NDB)
Fix

Horizontal Profiles

Position Reports

Time Latitude Longitude Heading Altitude Ground
Speed
11-Aug-15 11:32 27.762967 -82.633382 360 11ft 0kts
11-Aug-15 11:33 27.763405 -82.633138 63 12ft 0kts
11-Aug-15 11:34 27.770650 -82.615971 85 1323ft 121kts
11-Aug-15 11:35 27.758773 -82.561379 102 1865ft 231kts
11-Aug-15 11:36 27.753553 -82.484769 90 1641ft 251kts
11-Aug-15 11:37 27.780417 -82.415005 54 1657ft 245kts
11-Aug-15 11:38 27.815790 -82.350050 57 1817ft 253kts
11-Aug-15 11:39 27.857426 -82.279423 58 2950ft 292kts
11-Aug-15 11:40 27.904610 -82.196844 53 3459ft 328kts
11-Aug-15 11:41 27.963055 -82.115905 46 2639ft 304kts
11-Aug-15 11:42 27.989390 -82.048376 90 370ft 196kts
11-Aug-15 11:43 27.989360 -81.997470 88 451ft 176kts
11-Aug-15 11:44 27.952973 -81.935610 140 1116ft 306kts
11-Aug-15 11:45 27.885602 -81.875392 142 2223ft 320kts
11-Aug-15 11:46 27.813632 -81.815554 142 1752ft 316kts
11-Aug-15 11:47 27.743419 -81.755262 143 1573ft 314kts
11-Aug-15 11:48 27.672261 -81.697313 144 1404ft 314kts
11-Aug-15 11:49 27.600477 -81.640640 145 1275ft 314kts
11-Aug-15 11:50 27.528682 -81.584858 145 1175ft 313kts
11-Aug-15 11:51 27.456224 -81.528879 146 1073ft 321kts
11-Aug-15 11:52 27.387514 -81.475146 145 1465ft 318kts
11-Aug-15 11:53 27.318228 -81.413785 141 1671ft 317kts
11-Aug-15 11:54 27.262230 -81.360214 139 1783ft 316kts
11-Aug-15 11:55 27.196192 -81.294409 138 1877ft 317kts
11-Aug-15 11:56 27.130984 -81.227643 138 1964ft 317kts
11-Aug-15 11:57 27.065857 -81.160379 138 2041ft 317kts
11-Aug-15 11:58 26.999812 -81.094462 139 2070ft 318kts
11-Aug-15 11:59 26.931807 -81.031365 142 2108ft 318kts
11-Aug-15 12:00 26.860907 -80.971362 144 2138ft 318kts
11-Aug-15 12:01 26.789207 -80.913963 145 2168ft 318kts
11-Aug-15 12:02 26.719008 -80.853710 141 2162ft 315kts
11-Aug-15 12:03 26.652513 -80.787065 138 1975ft 315kts
11-Aug-15 12:04 26.585544 -80.723903 141 2207ft 310kts
11-Aug-15 12:05 26.518339 -80.661735 138 2204ft 315kts
11-Aug-15 12:06 26.448368 -80.602560 149 2026ft 320kts
11-Aug-15 12:07 26.368255 -80.560749 154 1819ft 311kts
11-Aug-15 12:08 26.295535 -80.513522 141 1393ft 292kts
11-Aug-15 12:09 26.240761 -80.462421 137 1980ft 233kts
11-Aug-15 12:10 26.193839 -80.415863 144 1647ft 216kts
11-Aug-15 12:11 26.194298 -80.368867 11 1640ft 210kts
11-Aug-15 12:12 26.217018 -80.417980 264 1648ft 219kts
11-Aug-15 12:13 26.209644 -80.485280 251 1628ft 219kts
11-Aug-15 12:14 26.169017 -80.477331 87 1646ft 207kts
11-Aug-15 12:15 26.174975 -80.413735 82 1649ft 206kts
11-Aug-15 12:16 26.180848 -80.350078 82 1647ft 205kts
11-Aug-15 12:17 26.187035 -80.287525 84 1633ft 201kts
11-Aug-15 12:18 26.192602 -80.231278 84 921ft 154kts
11-Aug-15 12:19 26.196324 -80.193705 84 308ft 84kts
11-Aug-15 12:20 26.198422 -80.172268 85 18ft 39kts
11-Aug-15 12:21 26.199209 -80.171098 260 17ft 18kts
11-Aug-15 12:22 26.199536 -80.173181 316 17ft 0kts

Navigation Log

Ident Type
Flight plan parsing failed, navigation log unavailable